Time;durP1;ratioP1;P1;durP2;ratioP2;P2;SDS_P1;SDS_P2;PMS_P1;PMS_P2;Temp;Humidity;BMP_temperature;BMP_pressure;BME280_temperature;BME280_humidity;BME280_pressure;Samples;Min_cycle;Max_cycle;Signal;HPM_P1;HPM_P2
2022/04/12 00:00:40;;;;;;;6.65;4.65;;;7.00;99.90;;;;;;4995237;28;20054;-79
2022/04/12 00:03:07;;;;;;;7.95;4.88;;;6.90;99.90;;;;;;4996682;28;20075;-80
2022/04/12 00:05:34;;;;;;;7.00;4.93;;;6.90;99.90;;;;;;4987692;28;20492;-79
2022/04/12 00:08:00;;;;;;;7.00;4.70;;;6.90;99.90;;;;;;4979315;28;20058;-78
2022/04/12 00:10:27;;;;;;;7.43;4.78;;;6.90;99.90;;;;;;4997359;28;20054;-79
2022/04/12 00:12:54;;;;;;;7.28;5.00;;;6.80;99.90;;;;;;4982227;28;20056;-79
2022/04/12 00:15:20;;;;;;;8.18;4.50;;;6.80;99.90;;;;;;4979341;28;20045;-79
2022/04/12 00:20:30;;;;;;;7.28;5.22;;;6.70;99.90;;;;;;4997693;28;20082;-79
2022/04/12 00:22:57;;;;;;;7.03;5.05;;;6.80;99.90;;;;;;4983569;28;20105;-79
2022/04/12 00:25:24;;;;;;;8.88;4.93;;;6.60;99.90;;;;;;4982327;28;20405;-78
2022/04/12 00:27:53;;;;;;;7.55;4.90;;;6.50;99.90;;;;;;4979771;28;20049;-79
2022/04/12 00:30:19;;;;;;;6.68;4.90;;;7.30;99.90;;;;;;4995663;28;20125;-79
2022/04/12 00:32:46;;;;;;;8.75;5.57;;;6.50;99.90;;;;;;4979500;28;20048;-79
2022/04/12 00:35:13;;;;;;;7.63;5.40;;;6.40;99.90;;;;;;4979818;28;20076;-79
2022/04/12 00:37:38;;;;;;;7.45;6.00;;;6.40;99.90;;;;;;4979756;28;20104;-79
2022/04/12 00:40:05;;;;;;;9.63;5.35;;;6.40;99.90;;;;;;4967541;28;20046;-79
2022/04/12 00:42:31;;;;;;;8.48;5.32;;;6.30;99.90;;;;;;4982147;28;20569;-79
2022/04/12 00:44:58;;;;;;;7.10;5.63;;;6.30;99.90;;;;;;4998134;28;20046;-79
2022/04/12 00:47:24;;;;;;;8.38;5.63;;;6.30;99.90;;;;;;4970708;28;20053;-80
2022/04/12 00:49:50;;;;;;;7.90;5.78;;;6.20;99.90;;;;;;4980951;28;20038;-79
2022/04/12 00:52:16;;;;;;;8.75;5.70;;;6.20;99.90;;;;;;4981427;28;20061;-79
2022/04/12 00:54:43;;;;;;;6.78;5.50;;;6.20;99.90;;;;;;4983325;28;20046;-79
2022/04/12 00:57:11;;;;;;;8.43;6.30;;;6.10;99.90;;;;;;4998501;28;20121;-79
2022/04/12 00:59:38;;;;;;;8.40;5.43;;;6.10;99.90;;;;;;4979485;28;20407;-79
2022/04/12 01:02:07;;;;;;;8.27;6.13;;;6.10;99.90;;;;;;4965327;28;20132;-79
2022/04/12 01:04:33;;;;;;;11.80;6.43;;;6.10;99.90;;;;;;4983095;28;20050;-78
2022/04/12 01:07:03;;;;;;;9.63;6.65;;;6.00;99.90;;;;;;4966700;28;20133;-80
2022/04/12 01:09:29;;;;;;;11.02;6.30;;;6.00;99.90;;;;;;4994279;28;20484;-81
2022/04/12 01:11:56;;;;;;;12.15;7.30;;;5.90;99.90;;;;;;4975428;28;20092;-80
2022/04/12 01:14:23;;;;;;;7.03;5.97;;;6.00;99.90;;;;;;4998514;28;20092;-81
2022/04/12 01:16:50;;;;;;;8.02;6.55;;;5.90;99.90;;;;;;4963141;28;20129;-81
2022/04/12 01:19:16;;;;;;;8.95;6.82;;;5.90;99.90;;;;;;4979024;28;20131;-81
2022/04/12 01:22:02;;;;;;;8.35;6.32;;;5.90;99.90;;;;;;4996576;28;20045;-80
2022/04/12 01:24:28;;;;;;;;;;;5.90;99.90;;;;;;4995826;28;20042;-81
2022/04/12 01:26:54;;;;;;;11.00;7.30;;;5.80;99.90;;;;;;4980535;28;19922;-80
2022/04/12 01:29:19;;;;;;;8.77;6.78;;;5.80;99.90;;;;;;4980674;28;20105;-81
2022/04/12 01:31:45;;;;;;;10.52;7.25;;;5.80;99.90;;;;;;4964250;28;20124;-80
2022/04/12 01:34:12;;;;;;;11.18;6.63;;;5.80;99.90;;;;;;4977740;28;20042;-81
2022/04/12 01:36:38;;;;;;;8.73;6.75;;;5.70;99.90;;;;;;4980228;28;20512;-80
2022/04/12 01:39:03;;;;;;;10.80;7.45;;;5.80;99.90;;;;;;4997322;28;20060;-81
2022/04/12 01:41:29;;;;;;;9.15;6.88;;;5.70;99.90;;;;;;4980002;28;20085;-81
2022/04/12 01:43:55;;;;;;;9.02;6.85;;;5.70;99.90;;;;;;4996028;28;20811;-81
2022/04/12 01:46:21;;;;;;;10.73;7.47;;;5.60;99.90;;;;;;4981519;28;20057;-80
2022/04/12 01:48:48;;;;;;;11.07;7.50;;;6.10;99.90;;;;;;4966936;28;20034;-80
2022/04/12 01:51:14;;;;;;;12.15;7.95;;;5.70;99.90;;;;;;4972165;28;20069;-80
2022/04/12 01:53:40;;;;;;;11.15;7.55;;;5.60;99.90;;;;;;4978813;28;20050;-80
2022/04/12 01:56:05;;;;;;;9.82;7.40;;;5.70;99.90;;;;;;4982033;28;20046;-80
2022/04/12 01:58:32;;;;;;;9.95;7.38;;;5.60;99.90;;;;;;4963446;28;20046;-81
2022/04/12 02:00:59;;;;;;;10.30;7.13;;;5.60;99.90;;;;;;4983825;28;20045;-80
2022/04/12 02:03:25;;;;;;;11.60;7.55;;;5.60;99.90;;;;;;4996969;28;20328;-80
2022/04/12 02:05:54;;;;;;;10.57;7.55;;;5.50;99.90;;;;;;4981412;28;20042;-81
2022/04/12 02:08:21;;;;;;;9.60;7.70;;;5.80;99.90;;;;;;4998384;28;20053;-81
2022/04/12 02:10:47;;;;;;;9.63;7.18;;;5.50;99.90;;;;;;4983538;28;20070;-81
2022/04/12 02:13:12;;;;;;;8.63;7.38;;;5.50;99.90;;;;;;5000230;28;20085;-80
2022/04/12 02:15:38;;;;;;;9.52;7.10;;;5.50;99.90;;;;;;4969757;28;20041;-80
2022/04/12 02:18:04;;;;;;;12.10;6.75;;;6.10;99.90;;;;;;4999042;28;20038;-79
2022/04/12 02:20:30;;;;;;;10.30;7.70;;;5.40;99.90;;;;;;4969902;28;20078;-79
2022/04/12 02:22:56;;;;;;;11.25;7.65;;;6.60;99.90;;;;;;4968040;28;20050;-78
2022/04/12 02:25:21;;;;;;;9.13;7.30;;;4.50;99.90;;;;;;4983026;28;20052;-78
2022/04/12 02:27:48;;;;;;;11.95;7.88;;;5.40;99.90;;;;;;4982054;28;20216;-78
2022/04/12 02:30:14;;;;;;;9.63;7.70;;;5.50;99.90;;;;;;4966200;28;20829;-80
2022/04/12 02:32:40;;;;;;;10.63;7.82;;;6.20;99.90;;;;;;4978917;28;20049;-81
2022/04/12 02:35:07;;;;;;;10.77;8.00;;;5.40;99.90;;;;;;4966600;28;20129;-81
2022/04/12 02:37:33;;;;;;;11.30;7.65;;;5.40;99.90;;;;;;4981210;28;20052;-78
2022/04/12 02:39:59;;;;;;;11.02;8.48;;;5.40;99.90;;;;;;4982614;28;20039;-81
2022/04/12 02:42:24;;;;;;;11.43;8.10;;;5.40;99.90;;;;;;4982743;28;20058;-80
2022/04/12 02:44:50;;;;;;;10.63;7.50;;;5.40;99.90;;;;;;4981903;28;20038;-80
2022/04/12 02:47:16;;;;;;;10.82;7.97;;;5.50;99.90;;;;;;4996013;28;21964;-80
2022/04/12 02:49:41;;;;;;;12.18;8.40;;;6.20;99.90;;;;;;4988755;28;20050;-81
2022/04/12 02:52:08;;;;;;;10.40;7.95;;;5.40;99.90;;;;;;4967444;28;20057;-81
2022/04/12 02:54:34;;;;;;;10.10;8.15;;;5.80;99.90;;;;;;4967133;28;20129;-80
2022/04/12 02:57:00;;;;;;;10.70;7.90;;;5.50;99.90;;;;;;4979785;28;20054;-81
2022/04/12 02:59:26;;;;;;;10.65;8.20;;;5.40;99.90;;;;;;5000204;28;20046;-81
2022/04/12 03:01:52;;;;;;;12.07;7.95;;;5.50;99.90;;;;;;4981475;28;20053;-79
2022/04/12 03:04:18;;;;;;;10.77;7.90;;;5.50;99.90;;;;;;4980522;28;20399;-79
2022/04/12 03:06:44;;;;;;;11.52;8.75;;;5.50;99.90;;;;;;4997223;28;20046;-79
2022/04/12 03:09:10;;;;;;;9.95;7.68;;;5.40;99.90;;;;;;4996899;28;20081;-78
2022/04/12 03:11:36;;;;;;;10.75;8.43;;;5.70;99.90;;;;;;4966624;28;20046;-79
2022/04/12 03:14:02;;;;;;;10.20;8.27;;;6.10;99.90;;;;;;4980131;28;20103;-79
2022/04/12 03:16:28;;;;;;;10.55;7.80;;;5.40;99.90;;;;;;4979305;28;20106;-79
2022/04/12 03:18:54;;;;;;;12.48;7.75;;;5.40;99.90;;;;;;4978455;28;20077;-79
2022/04/12 03:21:20;;;;;;;12.77;8.40;;;6.50;99.90;;;;;;4968819;28;20133;-79
2022/04/12 03:23:46;;;;;;;11.75;8.95;;;5.40;99.90;;;;;;4996986;28;20050;-79
2022/04/12 03:26:11;;;;;;;10.60;7.90;;;5.40;99.90;;;;;;4968198;28;20752;-79
2022/04/12 03:28:37;;;;;;;9.45;7.70;;;5.50;99.90;;;;;;4996996;28;20038;-79
2022/04/12 03:31:03;;;;;;;12.48;8.50;;;5.50;99.90;;;;;;4982350;28;20053;-79
2022/04/12 03:33:28;;;;;;;11.95;8.45;;;5.50;99.90;;;;;;4973543;28;20380;-79
2022/04/12 03:35:54;;;;;;;10.55;8.23;;;5.50;99.90;;;;;;4998315;28;20112;-79
2022/04/12 03:38:20;;;;;;;9.63;7.53;;;5.50;99.90;;;;;;4964454;28;20397;-79
2022/04/12 03:40:46;;;;;;;14.13;8.10;;;5.50;99.90;;;;;;4980768;28;20133;-79
2022/04/12 03:43:12;;;;;;;10.55;8.45;;;5.50;99.90;;;;;;4984802;28;20092;-79
2022/04/12 03:45:38;;;;;;;11.55;8.23;;;5.50;99.90;;;;;;4983630;28;20046;-80
2022/04/12 03:48:05;;;;;;;10.57;8.10;;;5.50;99.90;;;;;;4982209;28;20120;-79
2022/04/12 03:50:34;;;;;;;11.55;8.30;;;5.50;99.90;;;;;;4981644;28;20046;-79
2022/04/12 03:53:01;;;;;;;10.20;8.18;;;5.50;99.90;;;;;;4983661;28;20047;-79
2022/04/12 03:55:35;;;;;;;10.15;8.45;;;5.50;99.90;;;;;;4995122;28;20042;-79
2022/04/12 03:58:05;;;;;;;10.23;8.18;;;5.50;99.90;;;;;;4997396;28;20605;-79
2022/04/12 04:00:32;;;;;;;10.95;7.97;;;5.60;99.90;;;;;;4999830;28;20046;-80
2022/04/12 04:02:58;;;;;;;12.38;8.27;;;5.60;99.90;;;;;;4978287;28;20049;-80
2022/04/12 04:05:25;;;;;;;10.85;7.72;;;5.60;99.90;;;;;;4996833;28;20046;-79
2022/04/12 04:07:51;;;;;;;8.95;7.68;;;5.60;99.90;;;;;;4980170;28;20411;-79
2022/04/12 04:10:17;;;;;;;9.90;8.02;;;5.50;99.90;;;;;;4980390;28;20502;-79
2022/04/12 04:12:43;;;;;;;10.00;8.40;;;5.60;99.90;;;;;;4980465;28;20077;-79
2022/04/12 04:15:14;;;;;;;11.27;8.18;;;5.60;99.90;;;;;;4996888;28;20124;-79
2022/04/12 04:17:49;;;;;;;8.90;7.57;;;6.10;99.90;;;;;;4982427;28;20050;-79
2022/04/12 04:20:17;;;;;;;10.57;7.95;;;5.60;99.90;;;;;;4965767;28;21252;-79
2022/04/12 04:22:43;;;;;;;11.68;8.55;;;5.60;99.90;;;;;;4995778;28;20046;-79
2022/04/12 04:25:14;;;;;;;11.05;8.18;;;5.60;99.90;;;;;;4964188;28;20042;-79
2022/04/12 04:27:41;;;;;;;10.77;7.88;;;5.60;99.90;;;;;;4980033;28;20133;-78
2022/04/12 04:30:09;;;;;;;8.93;7.43;;;5.80;99.90;;;;;;4998453;28;20073;-79
2022/04/12 04:32:39;;;;;;;11.25;7.82;;;5.60;99.90;;;;;;4981785;28;20054;-78
2022/04/12 04:35:05;;;;;;;12.63;7.88;;;5.60;99.90;;;;;;4977357;28;20559;-79
2022/04/12 04:37:31;;;;;;;10.45;8.02;;;5.60;99.90;;;;;;4987124;28;20046;-79
2022/04/12 04:39:57;;;;;;;9.68;7.70;;;5.60;99.90;;;;;;4980326;28;20042;-78
2022/04/12 04:42:23;;;;;;;10.55;7.65;;;5.60;99.90;;;;;;4981973;28;20591;-78
2022/04/12 04:44:49;;;;;;;10.65;8.02;;;5.60;99.90;;;;;;4965474;28;20042;-78
2022/04/12 04:47:15;;;;;;;12.13;9.05;;;5.60;99.90;;;;;;4998205;28;20069;-80
2022/04/12 04:49:41;;;;;;;10.85;8.57;;;5.60;99.90;;;;;;4963976;28;20840;-80
2022/04/12 04:52:07;;;;;;;10.93;8.27;;;5.50;99.90;;;;;;4979864;28;20042;-80
2022/04/12 04:54:33;;;;;;;10.75;8.02;;;5.60;99.90;;;;;;4980600;28;20060;-79
2022/04/12 04:56:59;;;;;;;9.98;7.70;;;5.50;99.90;;;;;;4981530;28;20042;-79
2022/04/12 04:59:24;;;;;;;9.25;7.93;;;5.50;99.90;;;;;;4979530;28;20045;-80
2022/04/12 05:01:50;;;;;;;8.80;7.50;;;5.50;99.90;;;;;;4965528;28;20137;-80
2022/04/12 05:04:16;;;;;;;11.82;8.25;;;5.50;99.90;;;;;;4996209;28;20081;-80
2022/04/12 05:06:42;;;;;;;11.35;8.13;;;5.50;99.90;;;;;;4978285;28;20061;-80
2022/04/12 05:09:07;;;;;;;15.20;7.85;;;5.50;99.90;;;;;;4965274;28;20050;-80
2022/04/12 05:11:33;;;;;;;11.52;7.93;;;5.50;99.90;;;;;;4981222;28;20126;-80
2022/04/12 05:13:59;;;;;;;10.75;8.05;;;5.50;99.90;;;;;;4980268;28;20488;-80
2022/04/12 05:16:24;;;;;;;9.75;7.50;;;5.70;99.90;;;;;;4966084;28;20049;-80
2022/04/12 05:18:51;;;;;;;12.50;8.23;;;5.50;99.90;;;;;;4976917;28;20053;-81
2022/04/12 05:21:18;;;;;;;11.45;8.15;;;5.50;99.90;;;;;;4974712;28;20110;-80
2022/04/12 05:23:44;;;;;;;9.85;7.57;;;5.60;99.90;;;;;;4991073;28;20279;-81
2022/04/12 05:26:10;;;;;;;8.88;7.35;;;5.60;99.90;;;;;;4962794;28;20441;-80
2022/04/12 05:28:36;;;;;;;9.30;7.63;;;5.60;99.90;;;;;;4994855;28;20663;-80
2022/04/12 05:31:02;;;;;;;11.02;8.00;;;5.70;99.90;;;;;;4961975;28;20315;-81
2022/04/12 05:33:28;;;;;;;11.77;7.50;;;5.00;99.90;;;;;;4962324;28;20891;-81
2022/04/12 05:35:53;;;;;;;10.63;7.95;;;5.70;99.90;;;;;;4946824;28;20049;-80
2022/04/12 05:38:19;;;;;;;10.55;7.55;;;5.80;99.90;;;;;;4977722;28;20439;-80
2022/04/12 05:40:45;;;;;;;10.98;8.05;;;5.80;99.90;;;;;;4976160;28;20616;-81
2022/04/12 05:43:11;;;;;;;9.55;7.35;;;5.90;99.90;;;;;;4996961;28;20046;-80
2022/04/12 05:45:37;;;;;;;10.50;8.10;;;5.90;99.90;;;;;;4995805;28;20053;-81
2022/04/12 05:48:03;;;;;;;10.13;8.23;;;5.90;99.90;;;;;;4963446;28;20584;-81
2022/04/12 05:50:29;;;;;;;10.77;7.68;;;6.00;99.90;;;;;;4980050;28;20053;-81
2022/04/12 05:52:55;;;;;;;10.68;8.05;;;6.00;99.90;;;;;;4981491;28;20137;-81
2022/04/12 05:55:23;;;;;;;11.32;7.90;;;6.10;99.90;;;;;;4995755;28;20117;-82
2022/04/12 05:57:52;;;;;;;13.02;8.73;;;6.20;99.90;;;;;;4995947;28;20423;-81
2022/04/12 06:00:20;;;;;;;9.98;7.70;;;6.20;99.90;;;;;;4985887;28;20400;-81
2022/04/12 06:02:50;;;;;;;10.38;8.18;;;6.20;99.90;;;;;;4962585;28;20057;-80
2022/04/12 06:05:18;;;;;;;10.80;7.82;;;6.20;99.90;;;;;;4993455;28;20117;-83
2022/04/12 06:07:44;;;;;;;9.93;7.35;;;6.80;99.90;;;;;;4979096;28;20050;-80
2022/04/12 06:10:11;;;;;;;10.25;7.53;;;6.30;99.90;;;;;;4979874;28;20488;-81
2022/04/12 06:12:38;;;;;;;10.05;7.82;;;6.30;99.90;;;;;;4979513;28;20042;-80
2022/04/12 06:15:05;;;;;;;10.57;7.93;;;6.30;99.90;;;;;;4980329;28;20069;-80
2022/04/12 06:17:32;;;;;;;11.48;7.60;;;6.40;99.90;;;;;;4981748;28;20054;-81
2022/04/12 06:20:02;;;;;;;9.82;7.53;;;6.90;99.90;;;;;;4978524;28;20384;-80
2022/04/12 06:22:27;;;;;;;9.35;7.57;;;6.40;99.90;;;;;;4980841;28;20053;-81
2022/04/12 06:24:53;;;;;;;10.43;8.18;;;6.50;99.90;;;;;;4976883;28;20487;-80
2022/04/12 06:27:34;;;;;;;10.13;7.82;;;6.60;99.90;;;;;;4977325;28;20429;-80
2022/04/12 06:30:12;;;;;;;11.15;7.28;;;6.60;99.90;;;;;;4979592;28;20498;-81
2022/04/12 06:32:38;;;;;;;9.23;7.47;;;6.60;99.90;;;;;;4996254;28;20137;-81
2022/04/12 06:35:07;;;;;;;8.55;7.03;;;6.70;99.90;;;;;;4962802;28;20042;-80
2022/04/12 06:37:33;;;;;;;8.30;7.05;;;6.60;99.90;;;;;;4978305;28;20046;-80
2022/04/12 06:40:00;;;;;;;10.55;7.20;;;6.70;99.90;;;;;;4976265;28;20053;-81
2022/04/12 06:42:26;;;;;;;12.20;7.70;;;6.70;99.90;;;;;;4996049;28;20155;-80
2022/04/12 06:44:53;;;;;;;8.80;7.25;;;6.70;99.90;;;;;;4997760;28;20074;-81
2022/04/12 06:47:19;;;;;;;9.18;7.13;;;6.80;99.90;;;;;;4981336;28;20049;-81
2022/04/12 06:49:50;;;;;;;11.13;7.72;;;6.80;99.90;;;;;;4981018;28;20108;-81
2022/04/12 06:52:17;;;;;;;10.05;7.38;;;6.80;99.90;;;;;;4962110;28;20080;-81
2022/04/12 06:54:43;;;;;;;12.18;8.23;;;6.90;99.90;;;;;;4996803;28;20125;-81
2022/04/12 06:57:09;;;;;;;9.63;7.35;;;7.00;99.90;;;;;;4978648;28;20149;-80
2022/04/12 06:59:36;;;;;;;10.68;8.00;;;7.00;99.90;;;;;;4981428;28;20395;-82
2022/04/12 07:02:02;;;;;;;8.75;7.03;;;7.10;99.90;;;;;;4965122;28;20046;-82
2022/04/12 07:04:28;;;;;;;10.15;7.00;;;7.10;99.90;;;;;;4998276;28;20048;-81
2022/04/12 07:06:56;;;;;;;8.65;7.15;;;7.20;99.90;;;;;;4995399;28;20054;-81
2022/04/12 07:09:27;;;;;;;9.70;7.57;;;8.20;99.90;;;;;;4980918;28;20050;-80
2022/04/12 07:11:57;;;;;;;9.90;7.72;;;7.60;99.90;;;;;;4978764;28;20128;-82
2022/04/12 07:14:23;;;;;;;10.05;7.53;;;7.80;99.90;;;;;;4996421;28;20089;-81
2022/04/12 07:16:49;;;;;;;10.10;7.32;;;8.00;99.90;;;;;;4963277;28;20038;-78
2022/04/12 07:19:16;;;;;;;9.02;7.30;;;8.20;99.90;;;;;;4978755;28;20084;-81
2022/04/12 07:21:42;;;;;;;10.15;7.43;;;7.60;99.90;;;;;;4978463;28;20115;-79
2022/04/12 07:24:07;;;;;;;9.70;6.63;;;8.70;99.90;;;;;;4988331;28;20499;-81
2022/04/12 07:26:34;;;;;;;9.20;7.22;;;8.90;99.90;;;;;;4999274;28;20053;-81
2022/04/12 07:29:00;;;;;;;8.60;7.10;;;9.10;99.90;;;;;;4968108;28;20049;-83
2022/04/12 07:31:26;;;;;;;8.68;7.25;;;9.30;99.90;;;;;;4966111;28;21919;-79
2022/04/12 07:33:52;;;;;;;9.75;6.97;;;9.60;99.90;;;;;;4999310;28;20133;-79
2022/04/12 07:36:19;;;;;;;8.85;6.03;;;9.80;99.90;;;;;;5000321;28;20049;-78
2022/04/12 07:38:45;;;;;;;9.00;6.70;;;10.00;99.90;;;;;;4998231;28;20058;-79
2022/04/12 07:41:11;;;;;;;7.78;6.30;;;10.20;99.90;;;;;;4998469;28;20102;-79
2022/04/12 07:43:37;;;;;;;7.60;6.53;;;10.40;99.90;;;;;;4983328;28;20071;-78
2022/04/12 07:46:04;;;;;;;7.53;5.97;;;10.60;99.90;;;;;;4982805;28;20085;-79
2022/04/12 07:48:30;;;;;;;8.50;6.72;;;10.90;99.90;;;;;;4966523;28;20062;-79
2022/04/12 07:50:56;;;;;;;7.25;6.35;;;11.00;99.90;;;;;;4996795;28;20096;-79
2022/04/12 07:53:21;;;;;;;8.02;6.47;;;11.20;99.90;;;;;;4977528;28;20580;-78
2022/04/12 07:55:47;;;;;;;7.65;6.25;;;11.30;99.90;;;;;;4995874;28;20503;-78
2022/04/12 07:58:15;;;;;;;10.23;6.30;;;11.40;99.90;;;;;;4964067;28;20054;-78
2022/04/12 08:00:41;;;;;;;7.60;6.10;;;11.70;99.90;;;;;;4967802;28;20046;-78
2022/04/12 08:03:07;;;;;;;6.88;5.90;;;11.90;99.90;;;;;;4980908;28;20574;-79
2022/04/12 08:05:34;;;;;;;8.85;6.00;;;12.10;99.90;;;;;;4967613;28;20957;-79
2022/04/12 08:08:01;;;;;;;7.28;5.90;;;12.30;99.90;;;;;;4981421;28;20038;-79
2022/04/12 08:10:27;;;;;;;8.80;5.95;;;12.50;99.90;;;;;;4981720;28;20050;-78
2022/04/12 08:12:52;;;;;;;8.07;5.25;;;12.60;99.90;;;;;;4966092;28;20054;-79
2022/04/12 08:15:19;;;;;;;7.60;5.82;;;12.70;99.90;;;;;;5004982;28;20060;-78
2022/04/12 08:17:45;;;;;;;7.18;5.82;;;12.80;99.90;;;;;;4983218;28;20049;-79
2022/04/12 08:20:13;;;;;;;7.72;5.70;;;13.00;99.90;;;;;;4999366;28;20042;-79
2022/04/12 08:22:40;;;;;;;6.47;5.63;;;13.10;99.90;;;;;;4968636;28;20041;-79
2022/04/12 08:25:07;;;;;;;7.57;5.90;;;13.20;99.90;;;;;;4979462;28;20598;-79
2022/04/12 08:27:33;;;;;;;8.30;6.00;;;13.40;99.90;;;;;;4999036;28;20058;-79
2022/04/12 08:29:59;;;;;;;7.72;5.40;;;13.60;99.90;;;;;;4981306;28;20053;-79
2022/04/12 08:32:25;;;;;;;7.28;5.75;;;13.80;99.90;;;;;;4982075;28;20127;-79
2022/04/12 08:34:50;;;;;;;7.35;5.82;;;14.00;99.90;;;;;;4981710;28;20471;-79
2022/04/12 08:37:16;;;;;;;6.18;5.45;;;14.10;99.90;;;;;;4989245;28;20046;-85
2022/04/12 08:39:42;;;;;;;7.68;5.72;;;14.20;99.90;;;;;;4981540;28;20806;-80
2022/04/12 08:42:08;;;;;;;6.65;5.65;;;14.40;99.90;;;;;;4976470;28;20054;-80
2022/04/12 08:44:36;;;;;;;7.00;5.65;;;14.50;99.90;;;;;;4982200;28;20089;-81
2022/04/12 08:47:04;;;;;;;6.93;5.35;;;14.80;99.90;;;;;;4984736;28;20050;-82
2022/04/12 08:49:31;;;;;;;6.60;5.85;;;14.90;99.90;;;;;;4982565;28;20051;-81
2022/04/12 08:51:56;;;;;;;7.95;5.65;;;15.10;99.90;;;;;;4951445;28;20053;-81
2022/04/12 08:54:23;;;;;;;7.07;5.65;;;15.30;99.90;;;;;;4964995;28;20047;-82
2022/04/12 08:56:51;;;;;;;7.20;5.60;;;15.60;99.90;;;;;;4981879;28;20077;-82
2022/04/12 08:59:20;;;;;;;6.40;4.97;;;15.80;99.90;;;;;;4980527;28;20050;-83
2022/04/12 09:01:49;;;;;;;7.88;5.95;;;15.80;99.90;;;;;;4994686;28;20046;-82
2022/04/12 09:04:15;;;;;;;7.53;5.80;;;15.90;99.90;;;;;;4963266;28;20046;-81
2022/04/12 09:07:00;;;;;;;6.43;5.22;;;16.10;99.90;;;;;;4964185;28;20169;-82
2022/04/12 09:09:29;;;;;;;6.85;5.28;;;16.20;99.90;;;;;;4980968;28;20050;-81
2022/04/12 09:12:04;;;;;;;6.93;5.20;;;16.40;99.90;;;;;;4978822;28;20056;-82
2022/04/12 09:14:44;;;;;;;6.65;5.43;;;16.60;99.90;;;;;;4994363;28;20054;-82
2022/04/12 09:17:29;;;;;;;5.60;4.82;;;16.50;99.90;;;;;;5004362;28;20050;-82
2022/04/12 09:19:55;;;;;;;7.13;5.57;;;16.80;99.90;;;;;;4986325;28;20049;-82
2022/04/12 09:22:23;;;;;;;8.35;4.95;;;16.80;99.90;;;;;;4950010;28;20061;-82
2022/04/12 09:24:57;;;;;;;7.57;5.45;;;16.90;99.90;;;;;;4996454;28;20116;-82
2022/04/12 09:27:28;;;;;;;6.90;5.20;;;17.00;99.90;;;;;;4980660;28;20050;-83
2022/04/12 09:30:09;;;;;;;6.25;5.30;;;17.10;99.90;;;;;;4981510;28;20137;-82
2022/04/12 09:32:49;;;;;;;7.07;4.93;;;17.30;99.90;;;;;;4998768;28;20142;-82
2022/04/12 09:35:16;;;;;;;8.52;6.43;;;17.50;98.60;;;;;;4994971;28;20049;-81
2022/04/12 09:37:43;;;;;;;6.15;5.22;;;17.60;99.40;;;;;;4998599;28;20042;-81
2022/04/12 09:40:17;;;;;;;7.38;5.30;;;17.60;99.30;;;;;;4995622;28;20376;-82
2022/04/12 09:43:02;;;;;;;6.82;5.45;;;17.10;98.90;;;;;;5000818;28;20069;-82
2022/04/12 09:45:30;;;;;;;6.28;4.88;;;17.60;99.50;;;;;;4963634;28;20125;-82
2022/04/12 09:48:03;;;;;;;7.10;5.32;;;17.70;99.10;;;;;;4980945;28;20642;-82
2022/04/12 09:50:31;;;;;;;8.80;5.40;;;17.70;98.80;;;;;;4966049;28;20571;-82
2022/04/12 09:52:59;;;;;;;6.75;4.85;;;17.70;98.90;;;;;;4980468;28;20041;-81
2022/04/12 09:55:41;;;;;;;7.15;5.00;;;17.90;98.80;;;;;;4964412;28;20154;-81
2022/04/12 09:58:09;;;;;;;5.97;5.13;;;18.10;98.10;;;;;;4979926;28;20055;-80
2022/04/12 10:00:38;;;;;;;6.05;4.95;;;18.20;98.50;;;;;;4996023;28;20061;-80
2022/04/12 10:03:09;;;;;;;5.90;4.80;;;18.40;98.10;;;;;;4995221;28;20054;-80
2022/04/12 10:05:35;;;;;;;6.15;4.63;;;18.60;96.10;;;;;;4986908;28;20049;-80
2022/04/12 10:08:05;;;;;;;7.13;4.75;;;18.90;97.60;;;;;;4977714;28;20054;-81
2022/04/12 10:10:31;;;;;;;6.28;5.00;;;19.20;96.90;;;;;;4998333;28;20088;-81
2022/04/12 10:12:59;;;;;;;6.65;5.15;;;19.40;96.30;;;;;;4997420;28;20057;-80
2022/04/12 10:15:28;;;;;;;6.35;4.90;;;19.40;95.70;;;;;;4994957;28;20137;-80
2022/04/12 10:17:55;;;;;;;6.57;5.00;;;19.40;95.90;;;;;;5000762;28;20051;-80
2022/04/12 10:20:22;;;;;;;5.63;4.80;;;19.50;95.30;;;;;;4999529;28;20081;-82
2022/04/12 10:22:49;;;;;;;6.53;5.38;;;19.70;94.90;;;;;;4974202;28;20569;-80
2022/04/12 10:25:23;;;;;;;6.28;4.80;;;19.70;94.00;;;;;;4982202;28;20050;-81
2022/04/12 10:27:55;;;;;;;5.63;4.60;;;20.00;94.20;;;;;;4989780;28;20139;-80
2022/04/12 10:30:26;;;;;;;7.28;5.25;;;20.10;94.30;;;;;;4982512;28;20108;-80
2022/04/12 10:33:09;;;;;;;7.53;5.55;;;20.10;93.30;;;;;;4983251;28;20046;-80
2022/04/12 10:35:54;;;;;;;5.53;4.60;;;20.30;93.40;;;;;;4997628;28;20523;-80
2022/04/12 10:38:22;;;;;;;5.97;4.70;;;20.20;92.40;;;;;;4981160;28;20057;-80
2022/04/12 10:40:50;;;;;;;5.80;4.47;;;20.50;93.20;;;;;;4973757;28;20940;-81
2022/04/12 10:43:30;;;;;;;6.82;5.20;;;20.90;92.50;;;;;;4968430;28;20057;-80
2022/04/12 10:46:07;;;;;;;6.28;4.88;;;21.10;91.60;;;;;;4990624;28;20038;-81
2022/04/12 10:48:33;;;;;;;6.72;4.72;;;20.90;89.00;;;;;;4982933;28;20045;-81
2022/04/12 10:51:01;;;;;;;7.13;4.53;;;20.60;90.30;;;;;;4966723;28;20107;-81
2022/04/12 10:53:36;;;;;;;6.57;4.93;;;20.60;91.50;;;;;;4997379;28;20050;-81
2022/04/12 10:56:13;;;;;;;7.72;5.63;;;20.50;91.00;;;;;;4980779;28;20050;-82
2022/04/12 10:58:43;;;;;;;6.18;4.47;;;20.20;91.00;;;;;;4983878;28;20046;-83
2022/04/12 11:01:27;;;;;;;9.00;5.43;;;20.10;92.00;;;;;;5002307;28;20110;-84
2022/04/12 11:03:55;;;;;;;7.35;5.53;;;19.70;92.00;;;;;;4991694;28;20056;-81
2022/04/12 11:06:29;;;;;;;9.25;5.35;;;19.30;92.10;;;;;;4982742;28;20072;-85
2022/04/12 11:09:02;;;;;;;6.00;4.93;;;19.10;92.00;;;;;;4992005;28;20046;-84
2022/04/12 11:11:39;;;;;;;9.35;5.20;;;19.30;93.50;;;;;;4984635;28;20049;-83
2022/04/12 11:14:24;;;;;;;6.60;5.07;;;19.30;94.00;;;;;;4983908;28;20049;-84
2022/04/12 11:16:53;;;;;;;6.70;5.20;;;19.30;91.70;;;;;;4984568;28;20494;-83
2022/04/12 11:19:26;;;;;;;6.00;4.82;;;19.00;91.50;;;;;;5000131;28;20045;-84
2022/04/12 11:21:58;;;;;;;7.07;4.70;;;18.90;91.60;;;;;;4986977;28;20050;-84
2022/04/12 11:24:26;;;;;;;6.30;5.00;;;18.90;92.50;;;;;;5002320;28;20077;-83
2022/04/12 11:27:09;;;;;;;7.55;5.28;;;19.00;93.30;;;;;;4971356;28;20096;-85
2022/04/12 11:29:35;;;;;;;7.72;5.30;;;18.50;93.10;;;;;;4984340;28;20054;-84
2022/04/12 11:32:02;;;;;;;7.78;5.60;;;19.30;93.30;;;;;;4981616;28;20049;-83
2022/04/12 11:34:30;;;;;;;6.50;4.82;;;19.20;92.60;;;;;;4980544;28;20649;-83
2022/04/12 11:37:05;;;;;;;7.50;5.20;;;19.30;93.20;;;;;;4996118;28;20061;-84
2022/04/12 11:39:32;;;;;;;6.82;5.28;;;19.50;93.10;;;;;;4979119;28;20057;-82
2022/04/12 11:42:06;;;;;;;6.45;5.15;;;19.20;93.30;;;;;;4982311;28;20062;-79
2022/04/12 11:44:32;;;;;;;7.15;5.10;;;19.10;93.70;;;;;;4994944;28;20089;-80
2022/04/12 11:47:01;;;;;;;6.85;5.05;;;19.20;93.80;;;;;;4965381;28;20080;-80
2022/04/12 11:49:33;;;;;;;6.43;4.95;;;19.00;93.60;;;;;;4980349;28;20049;-80
2022/04/12 11:52:01;;;;;;;6.47;4.82;;;18.90;93.40;;;;;;4997677;28;20045;-80
2022/04/12 11:54:38;;;;;;;6.63;4.68;;;18.90;94.20;;;;;;4994231;28;20642;-80
2022/04/12 11:57:15;;;;;;;7.22;5.20;;;18.80;93.80;;;;;;4982445;28;20566;-80
2022/04/12 11:59:49;;;;;;;6.22;4.45;;;18.80;93.60;;;;;;4986592;28;20472;-86
2022/04/12 12:02:16;;;;;;;6.95;4.65;;;18.70;94.20;;;;;;4997202;28;20125;-85
2022/04/12 12:04:57;;;;;;;8.60;5.20;;;18.50;95.00;;;;;;4998703;28;20108;-83
2022/04/12 12:07:23;;;;;;;7.40;4.57;;;18.60;95.10;;;;;;4989336;28;20533;-83
2022/04/12 12:09:57;;;;;;;5.60;4.63;;;18.60;95.70;;;;;;4973003;28;20049;-83
2022/04/12 12:12:34;;;;;;;5.93;4.47;;;18.40;95.50;;;;;;4981418;28;20129;-84
2022/04/12 12:15:21;;;;;;;6.07;4.63;;;18.40;95.90;;;;;;4997018;28;20701;-84
2022/04/12 12:17:58;;;;;;;6.25;4.80;;;18.30;96.90;;;;;;4997699;28;20077;-85
2022/04/12 12:20:26;;;;;;;6.13;4.72;;;18.20;96.70;;;;;;4977797;28;20038;-84
2022/04/12 12:22:56;;;;;;;6.75;4.78;;;17.70;96.70;;;;;;4985996;28;20049;-84
2022/04/12 12:25:48;;;;;;;7.45;4.95;;;18.10;97.10;;;;;;4982285;28;20119;-85
2022/04/12 12:28:39;;;;;;;6.22;5.10;;;18.10;97.70;;;;;;4995057;28;20057;-84
2022/04/12 12:31:07;;;;;;;6.55;5.10;;;18.10;98.10;;;;;;4996414;28;20518;-86
2022/04/12 12:33:51;;;;;;;7.57;5.25;;;18.00;98.10;;;;;;4978870;28;20042;-84
2022/04/12 12:36:19;;;;;;;6.22;4.85;;;17.90;97.50;;;;;;4996770;28;20053;-85
2022/04/12 12:38:45;;;;;;;7.78;4.75;;;17.80;98.30;;;;;;4987692;28;20049;-84
2022/04/12 12:41:22;;;;;;;6.53;4.38;;;17.80;98.70;;;;;;4986863;28;20046;-83
2022/04/12 12:43:53;;;;;;;7.35;4.78;;;17.90;98.90;;;;;;4981706;28;20064;-84
2022/04/12 12:46:19;;;;;;;6.03;4.63;;;17.90;99.10;;;;;;4966749;28;20499;-84
2022/04/12 12:48:44;;;;;;;7.38;5.07;;;18.00;99.10;;;;;;4978315;28;20046;-85
2022/04/12 12:51:10;;;;;;;7.13;5.18;;;18.10;99.20;;;;;;4964018;28;20141;-81
2022/04/12 12:53:37;;;;;;;5.97;4.90;;;18.30;99.00;;;;;;4994439;28;20042;-82
2022/04/12 12:56:14;;;;;;;5.78;4.55;;;18.50;99.10;;;;;;4996341;28;20100;-82
2022/04/12 12:58:40;;;;;;;5.30;4.60;;;18.80;99.20;;;;;;4962157;28;20048;-82